sensor_id;sensor_type;location;lat;lon;timestamp;pressure;altitude;pressure_sealevel;temperature
19666;BMP180;9980;51.020;7.772;2022-07-29T00:01:03;97574.00;;;21.40
19666;BMP180;9980;51.020;7.772;2022-07-29T00:03:30;97569.00;;;21.40
19666;BMP180;9980;51.020;7.772;2022-07-29T00:05:57;97573.00;;;21.40
19666;BMP180;9980;51.020;7.772;2022-07-29T00:08:26;97561.00;;;21.40
19666;BMP180;9980;51.020;7.772;2022-07-29T00:10:53;97573.00;;;21.30
19666;BMP180;9980;51.020;7.772;2022-07-29T00:13:20;97556.00;;;21.30
19666;BMP180;9980;51.020;7.772;2022-07-29T00:15:59;97567.00;;;21.30
19666;BMP180;9980;51.020;7.772;2022-07-29T00:18:31;97572.00;;;21.30
19666;BMP180;9980;51.020;7.772;2022-07-29T00:20:59;97561.00;;;21.20
19666;BMP180;9980;51.020;7.772;2022-07-29T00:23:26;97552.00;;;21.20
19666;BMP180;9980;51.020;7.772;2022-07-29T00:25:53;97559.00;;;21.20
19666;BMP180;9980;51.020;7.772;2022-07-29T00:28:19;97565.00;;;21.10
19666;BMP180;9980;51.020;7.772;2022-07-29T00:30:47;97568.00;;;21.10
19666;BMP180;9980;51.020;7.772;2022-07-29T00:33:14;97553.00;;;21.10
19666;BMP180;9980;51.020;7.772;2022-07-29T00:35:41;97557.00;;;21.00
19666;BMP180;9980;51.020;7.772;2022-07-29T00:38:14;97554.00;;;21.00
19666;BMP180;9980;51.020;7.772;2022-07-29T00:40:42;97560.00;;;21.00
19666;BMP180;9980;51.020;7.772;2022-07-29T00:43:11;97562.00;;;20.90
19666;BMP180;9980;51.020;7.772;2022-07-29T00:45:41;97541.00;;;20.90
19666;BMP180;9980;51.020;7.772;2022-07-29T00:48:08;97545.00;;;20.90
19666;BMP180;9980;51.020;7.772;2022-07-29T00:50:36;97541.00;;;20.90
19666;BMP180;9980;51.020;7.772;2022-07-29T00:53:06;97551.00;;;20.90
19666;BMP180;9980;51.020;7.772;2022-07-29T00:55:34;97559.00;;;20.80
19666;BMP180;9980;51.020;7.772;2022-07-29T00:58:01;97534.00;;;20.80
19666;BMP180;9980;51.020;7.772;2022-07-29T01:00:29;97544.00;;;20.80
19666;BMP180;9980;51.020;7.772;2022-07-29T01:02:57;97536.00;;;20.80
19666;BMP180;9980;51.020;7.772;2022-07-29T01:05:27;97535.00;;;20.80
19666;BMP180;9980;51.020;7.772;2022-07-29T01:08:15;97529.00;;;20.70
19666;BMP180;9980;51.020;7.772;2022-07-29T01:10:45;97527.00;;;20.70
19666;BMP180;9980;51.020;7.772;2022-07-29T01:13:15;97528.00;;;20.70
19666;BMP180;9980;51.020;7.772;2022-07-29T01:15:52;97522.00;;;20.70
19666;BMP180;9980;51.020;7.772;2022-07-29T01:18:34;97535.00;;;20.70
19666;BMP180;9980;51.020;7.772;2022-07-29T01:24:32;97514.00;;;20.60
19666;BMP180;9980;51.020;7.772;2022-07-29T01:27:44;97518.00;;;20.60
19666;BMP180;9980;51.020;7.772;2022-07-29T01:30:14;97526.00;;;20.70
19666;BMP180;9980;51.020;7.772;2022-07-29T01:32:47;97510.00;;;20.60
19666;BMP180;9980;51.020;7.772;2022-07-29T01:35:28;97515.00;;;20.60
19666;BMP180;9980;51.020;7.772;2022-07-29T01:38:09;97520.00;;;20.60
19666;BMP180;9980;51.020;7.772;2022-07-29T01:40:45;97512.00;;;20.60
19666;BMP180;9980;51.020;7.772;2022-07-29T01:43:19;97512.00;;;20.60
19666;BMP180;9980;51.020;7.772;2022-07-29T01:45:51;97513.00;;;20.60
19666;BMP180;9980;51.020;7.772;2022-07-29T01:51:25;97521.00;;;20.60
19666;BMP180;9980;51.020;7.772;2022-07-29T01:54:06;97517.00;;;20.60
19666;BMP180;9980;51.020;7.772;2022-07-29T01:56:37;97512.00;;;20.60
19666;BMP180;9980;51.020;7.772;2022-07-29T01:59:08;97499.00;;;20.60
19666;BMP180;9980;51.020;7.772;2022-07-29T02:01:39;97500.00;;;20.60
19666;BMP180;9980;51.020;7.772;2022-07-29T02:04:10;97500.00;;;20.60
19666;BMP180;9980;51.020;7.772;2022-07-29T02:07:02;97504.00;;;20.60
19666;BMP180;9980;51.020;7.772;2022-07-29T02:09:31;97503.00;;;20.60
19666;BMP180;9980;51.020;7.772;2022-07-29T02:12:02;97493.00;;;20.60
19666;BMP180;9980;51.020;7.772;2022-07-29T02:14:36;97499.00;;;20.50
19666;BMP180;9980;51.020;7.772;2022-07-29T02:17:03;97489.00;;;20.60
19666;BMP180;9980;51.020;7.772;2022-07-29T02:19:33;97484.00;;;20.50
19666;BMP180;9980;51.020;7.772;2022-07-29T02:22:03;97488.00;;;20.30
19666;BMP180;9980;51.020;7.772;2022-07-29T02:24:38;97479.00;;;20.50
19666;BMP180;9980;51.020;7.772;2022-07-29T02:27:08;97482.00;;;20.50
19666;BMP180;9980;51.020;7.772;2022-07-29T02:29:38;97479.00;;;20.50
19666;BMP180;9980;51.020;7.772;2022-07-29T02:32:09;97467.00;;;20.40
19666;BMP180;9980;51.020;7.772;2022-07-29T02:34:39;97473.00;;;20.40
19666;BMP180;9980;51.020;7.772;2022-07-29T02:37:10;97478.00;;;20.40
19666;BMP180;9980;51.020;7.772;2022-07-29T02:39:41;97465.00;;;20.40
19666;BMP180;9980;51.020;7.772;2022-07-29T02:42:15;97474.00;;;20.40
19666;BMP180;9980;51.020;7.772;2022-07-29T02:44:43;97477.00;;;20.40
19666;BMP180;9980;51.020;7.772;2022-07-29T02:47:26;97470.00;;;20.30
19666;BMP180;9980;51.020;7.772;2022-07-29T02:50:03;97484.00;;;20.30
19666;BMP180;9980;51.020;7.772;2022-07-29T02:52:45;97472.00;;;20.30
19666;BMP180;9980;51.020;7.772;2022-07-29T02:55:31;97481.00;;;20.30
19666;BMP180;9980;51.020;7.772;2022-07-29T02:58:32;97463.00;;;20.20
19666;BMP180;9980;51.020;7.772;2022-07-29T03:01:16;97464.00;;;20.20
19666;BMP180;9980;51.020;7.772;2022-07-29T03:03:51;97463.00;;;20.30
19666;BMP180;9980;51.020;7.772;2022-07-29T03:06:23;97449.00;;;20.20
19666;BMP180;9980;51.020;7.772;2022-07-29T03:09:07;97451.00;;;20.20
19666;BMP180;9980;51.020;7.772;2022-07-29T03:11:40;97434.00;;;20.20
19666;BMP180;9980;51.020;7.772;2022-07-29T03:14:20;97446.00;;;20.20
19666;BMP180;9980;51.020;7.772;2022-07-29T03:16:49;97448.00;;;20.20
19666;BMP180;9980;51.020;7.772;2022-07-29T03:19:17;97453.00;;;20.20
19666;BMP180;9980;51.020;7.772;2022-07-29T03:21:45;97441.00;;;20.20
19666;BMP180;9980;51.020;7.772;2022-07-29T03:24:29;97459.00;;;20.10
19666;BMP180;9980;51.020;7.772;2022-07-29T03:26:57;97445.00;;;20.20
19666;BMP180;9980;51.020;7.772;2022-07-29T03:29:25;97456.00;;;20.10
19666;BMP180;9980;51.020;7.772;2022-07-29T03:32:02;97447.00;;;20.10
19666;BMP180;9980;51.020;7.772;2022-07-29T03:34:35;97451.00;;;20.10
19666;BMP180;9980;51.020;7.772;2022-07-29T03:37:02;97439.00;;;20.10
19666;BMP180;9980;51.020;7.772;2022-07-29T03:39:35;97442.00;;;20.10
19666;BMP180;9980;51.020;7.772;2022-07-29T03:42:06;97445.00;;;20.10
19666;BMP180;9980;51.020;7.772;2022-07-29T03:44:36;97437.00;;;20.10
19666;BMP180;9980;51.020;7.772;2022-07-29T03:47:06;97446.00;;;20.10
19666;BMP180;9980;51.020;7.772;2022-07-29T03:49:37;97428.00;;;20.10
19666;BMP180;9980;51.020;7.772;2022-07-29T03:52:05;97439.00;;;20.10
19666;BMP180;9980;51.020;7.772;2022-07-29T03:54:33;97427.00;;;20.00
19666;BMP180;9980;51.020;7.772;2022-07-29T03:57:02;97429.00;;;20.00
19666;BMP180;9980;51.020;7.772;2022-07-29T03:59:32;97429.00;;;20.00
19666;BMP180;9980;51.020;7.772;2022-07-29T04:02:04;97422.00;;;20.00
19666;BMP180;9980;51.020;7.772;2022-07-29T04:04:35;97419.00;;;19.90
19666;BMP180;9980;51.020;7.772;2022-07-29T04:07:03;97445.00;;;19.90
19666;BMP180;9980;51.020;7.772;2022-07-29T04:09:31;97428.00;;;19.90
19666;BMP180;9980;51.020;7.772;2022-07-29T04:11:58;97443.00;;;19.90
19666;BMP180;9980;51.020;7.772;2022-07-29T04:14:33;97448.00;;;19.80
19666;BMP180;9980;51.020;7.772;2022-07-29T04:17:02;97442.00;;;19.80
19666;BMP180;9980;51.020;7.772;2022-07-29T04:19:30;97449.00;;;19.80
19666;BMP180;9980;51.020;7.772;2022-07-29T04:21:58;97435.00;;;19.80
19666;BMP180;9980;51.020;7.772;2022-07-29T04:24:26;97448.00;;;19.70
19666;BMP180;9980;51.020;7.772;2022-07-29T04:26:53;97451.00;;;19.70
19666;BMP180;9980;51.020;7.772;2022-07-29T04:29:20;97433.00;;;19.70
19666;BMP180;9980;51.020;7.772;2022-07-29T04:31:47;97442.00;;;19.70
19666;BMP180;9980;51.020;7.772;2022-07-29T04:34:15;97450.00;;;19.60
19666;BMP180;9980;51.020;7.772;2022-07-29T04:36:42;97445.00;;;19.60
19666;BMP180;9980;51.020;7.772;2022-07-29T04:39:09;97451.00;;;19.60
19666;BMP180;9980;51.020;7.772;2022-07-29T04:41:36;97447.00;;;19.60
19666;BMP180;9980;51.020;7.772;2022-07-29T04:44:04;97452.00;;;19.60
19666;BMP180;9980;51.020;7.772;2022-07-29T04:46:34;97461.00;;;19.60
19666;BMP180;9980;51.020;7.772;2022-07-29T04:49:04;97459.00;;;19.60
19666;BMP180;9980;51.020;7.772;2022-07-29T04:51:31;97443.00;;;19.60
19666;BMP180;9980;51.020;7.772;2022-07-29T04:53:58;97450.00;;;19.60
19666;BMP180;9980;51.020;7.772;2022-07-29T04:56:25;97451.00;;;19.70
19666;BMP180;9980;51.020;7.772;2022-07-29T04:58:53;97453.00;;;19.70
19666;BMP180;9980;51.020;7.772;2022-07-29T05:01:20;97462.00;;;19.80
19666;BMP180;9980;51.020;7.772;2022-07-29T05:03:47;97444.00;;;19.80
19666;BMP180;9980;51.020;7.772;2022-07-29T05:06:14;97462.00;;;19.90
19666;BMP180;9980;51.020;7.772;2022-07-29T05:08:41;97457.00;;;19.90
19666;BMP180;9980;51.020;7.772;2022-07-29T05:11:08;97461.00;;;19.90
19666;BMP180;9980;51.020;7.772;2022-07-29T05:13:39;97467.00;;;20.00
19666;BMP180;9980;51.020;7.772;2022-07-29T05:16:11;97464.00;;;20.00
19666;BMP180;9980;51.020;7.772;2022-07-29T05:18:39;97478.00;;;20.10
19666;BMP180;9980;51.020;7.772;2022-07-29T05:21:06;97477.00;;;20.10
19666;BMP180;9980;51.020;7.772;2022-07-29T05:23:33;97477.00;;;20.20
19666;BMP180;9980;51.020;7.772;2022-07-29T05:26:00;97484.00;;;20.20
19666;BMP180;9980;51.020;7.772;2022-07-29T05:28:27;97480.00;;;20.30
19666;BMP180;9980;51.020;7.772;2022-07-29T05:30:54;97464.00;;;20.30
19666;BMP180;9980;51.020;7.772;2022-07-29T05:33:21;97475.00;;;20.40
19666;BMP180;9980;51.020;7.772;2022-07-29T05:36:04;97468.00;;;20.40
19666;BMP180;9980;51.020;7.772;2022-07-29T05:38:34;97475.00;;;20.40
19666;BMP180;9980;51.020;7.772;2022-07-29T05:41:01;97469.00;;;20.50
19666;BMP180;9980;51.020;7.772;2022-07-29T05:43:28;97484.00;;;20.50
19666;BMP180;9980;51.020;7.772;2022-07-29T05:45:55;97483.00;;;20.50
19666;BMP180;9980;51.020;7.772;2022-07-29T05:48:23;97493.00;;;20.60
19666;BMP180;9980;51.020;7.772;2022-07-29T05:50:50;97482.00;;;20.60
19666;BMP180;9980;51.020;7.772;2022-07-29T05:53:17;97477.00;;;20.60
19666;BMP180;9980;51.020;7.772;2022-07-29T05:55:47;97493.00;;;20.70
19666;BMP180;9980;51.020;7.772;2022-07-29T05:58:14;97488.00;;;20.70
19666;BMP180;9980;51.020;7.772;2022-07-29T06:00:42;97497.00;;;20.70
19666;BMP180;9980;51.020;7.772;2022-07-29T06:03:09;97501.00;;;20.70
19666;BMP180;9980;51.020;7.772;2022-07-29T06:05:36;97511.00;;;20.80
19666;BMP180;9980;51.020;7.772;2022-07-29T06:08:04;97497.00;;;20.80
19666;BMP180;9980;51.020;7.772;2022-07-29T06:10:37;97509.00;;;20.80
19666;BMP180;9980;51.020;7.772;2022-07-29T06:13:04;97502.00;;;20.90
19666;BMP180;9980;51.020;7.772;2022-07-29T06:15:31;97523.00;;;20.90
19666;BMP180;9980;51.020;7.772;2022-07-29T06:17:59;97516.00;;;21.00
19666;BMP180;9980;51.020;7.772;2022-07-29T06:20:29;97505.00;;;21.00
19666;BMP180;9980;51.020;7.772;2022-07-29T06:22:57;97510.00;;;21.10
19666;BMP180;9980;51.020;7.772;2022-07-29T06:25:25;97526.00;;;21.20
19666;BMP180;9980;51.020;7.772;2022-07-29T06:27:52;97524.00;;;21.20
19666;BMP180;9980;51.020;7.772;2022-07-29T06:30:19;97528.00;;;21.30
19666;BMP180;9980;51.020;7.772;2022-07-29T06:32:46;97518.00;;;21.40
19666;BMP180;9980;51.020;7.772;2022-07-29T06:35:14;97518.00;;;21.50
19666;BMP180;9980;51.020;7.772;2022-07-29T06:38:04;97529.00;;;21.50
19666;BMP180;9980;51.020;7.772;2022-07-29T06:40:51;97524.00;;;21.60
19666;BMP180;9980;51.020;7.772;2022-07-29T06:43:31;97531.00;;;21.70
19666;BMP180;9980;51.020;7.772;2022-07-29T06:46:03;97533.00;;;21.80
19666;BMP180;9980;51.020;7.772;2022-07-29T06:48:31;97525.00;;;21.90
19666;BMP180;9980;51.020;7.772;2022-07-29T06:50:58;97531.00;;;22.00
19666;BMP180;9980;51.020;7.772;2022-07-29T06:53:27;97534.00;;;22.10
19666;BMP180;9980;51.020;7.772;2022-07-29T06:55:54;97540.00;;;22.20
19666;BMP180;9980;51.020;7.772;2022-07-29T06:58:21;97532.00;;;22.30
19666;BMP180;9980;51.020;7.772;2022-07-29T07:00:58;97541.00;;;22.40
19666;BMP180;9980;51.020;7.772;2022-07-29T07:03:25;97528.00;;;22.50
19666;BMP180;9980;51.020;7.772;2022-07-29T07:05:54;97540.00;;;22.70
19666;BMP180;9980;51.020;7.772;2022-07-29T07:08:22;97531.00;;;22.80
19666;BMP180;9980;51.020;7.772;2022-07-29T07:10:51;97527.00;;;23.00
19666;BMP180;9980;51.020;7.772;2022-07-29T07:13:19;97526.00;;;23.10
19666;BMP180;9980;51.020;7.772;2022-07-29T07:15:46;97540.00;;;23.30
19666;BMP180;9980;51.020;7.772;2022-07-29T07:18:15;97537.00;;;23.40
19666;BMP180;9980;51.020;7.772;2022-07-29T07:20:43;97533.00;;;23.60
19666;BMP180;9980;51.020;7.772;2022-07-29T07:23:11;97535.00;;;23.70
19666;BMP180;9980;51.020;7.772;2022-07-29T07:25:38;97551.00;;;23.90
19666;BMP180;9980;51.020;7.772;2022-07-29T07:28:05;97537.00;;;24.00
19666;BMP180;9980;51.020;7.772;2022-07-29T07:30:32;97541.00;;;24.20
19666;BMP180;9980;51.020;7.772;2022-07-29T07:32:59;97543.00;;;24.30
19666;BMP180;9980;51.020;7.772;2022-07-29T07:35:27;97534.00;;;24.40
19666;BMP180;9980;51.020;7.772;2022-07-29T07:37:55;97534.00;;;24.60
19666;BMP180;9980;51.020;7.772;2022-07-29T07:40:23;97542.00;;;24.70
19666;BMP180;9980;51.020;7.772;2022-07-29T07:42:50;97531.00;;;24.80
19666;BMP180;9980;51.020;7.772;2022-07-29T07:45:17;97540.00;;;25.00
19666;BMP180;9980;51.020;7.772;2022-07-29T07:47:44;97539.00;;;25.10
19666;BMP180;9980;51.020;7.772;2022-07-29T07:50:12;97537.00;;;25.20
19666;BMP180;9980;51.020;7.772;2022-07-29T07:52:53;97533.00;;;25.30
19666;BMP180;9980;51.020;7.772;2022-07-29T07:55:21;97539.00;;;25.50
19666;BMP180;9980;51.020;7.772;2022-07-29T07:57:48;97533.00;;;25.60
19666;BMP180;9980;51.020;7.772;2022-07-29T08:00:16;97543.00;;;25.70
19666;BMP180;9980;51.020;7.772;2022-07-29T08:02:44;97542.00;;;25.80
19666;BMP180;9980;51.020;7.772;2022-07-29T08:05:13;97531.00;;;25.90
19666;BMP180;9980;51.020;7.772;2022-07-29T08:07:45;97531.00;;;26.10
19666;BMP180;9980;51.020;7.772;2022-07-29T08:10:18;97542.00;;;26.20
19666;BMP180;9980;51.020;7.772;2022-07-29T08:13:08;97534.00;;;26.30
19666;BMP180;9980;51.020;7.772;2022-07-29T08:15:39;97529.00;;;26.40
19666;BMP180;9980;51.020;7.772;2022-07-29T08:18:07;97532.00;;;26.60
19666;BMP180;9980;51.020;7.772;2022-07-29T08:20:36;97540.00;;;26.70
19666;BMP180;9980;51.020;7.772;2022-07-29T08:23:07;97538.00;;;26.80
19666;BMP180;9980;51.020;7.772;2022-07-29T08:25:38;97547.00;;;27.00
19666;BMP180;9980;51.020;7.772;2022-07-29T08:28:06;97522.00;;;27.20
19666;BMP180;9980;51.020;7.772;2022-07-29T08:30:33;97540.00;;;27.30
19666;BMP180;9980;51.020;7.772;2022-07-29T08:33:01;97544.00;;;27.40
19666;BMP180;9980;51.020;7.772;2022-07-29T08:35:28;97534.00;;;27.60
19666;BMP180;9980;51.020;7.772;2022-07-29T08:38:03;97529.00;;;27.70
19666;BMP180;9980;51.020;7.772;2022-07-29T08:40:30;97523.00;;;27.80
19666;BMP180;9980;51.020;7.772;2022-07-29T08:43:04;97533.00;;;27.90
19666;BMP180;9980;51.020;7.772;2022-07-29T08:45:51;97539.00;;;28.00
19666;BMP180;9980;51.020;7.772;2022-07-29T08:48:22;97531.00;;;28.20
19666;BMP180;9980;51.020;7.772;2022-07-29T08:50:55;97522.00;;;28.30
19666;BMP180;9980;51.020;7.772;2022-07-29T08:53:25;97529.00;;;28.40
19666;BMP180;9980;51.020;7.772;2022-07-29T08:55:54;97542.00;;;28.50
19666;BMP180;9980;51.020;7.772;2022-07-29T08:58:22;97524.00;;;28.60
19666;BMP180;9980;51.020;7.772;2022-07-29T09:00:55;97532.00;;;28.60
19666;BMP180;9980;51.020;7.772;2022-07-29T09:03:30;97523.00;;;28.70
19666;BMP180;9980;51.020;7.772;2022-07-29T09:05:59;97524.00;;;28.80
19666;BMP180;9980;51.020;7.772;2022-07-29T09:08:26;97516.00;;;28.90
19666;BMP180;9980;51.020;7.772;2022-07-29T09:10:54;97521.00;;;28.90
19666;BMP180;9980;51.020;7.772;2022-07-29T09:13:22;97523.00;;;29.00
19666;BMP180;9980;51.020;7.772;2022-07-29T09:15:50;97527.00;;;29.10
19666;BMP180;9980;51.020;7.772;2022-07-29T09:18:39;97510.00;;;29.10
19666;BMP180;9980;51.020;7.772;2022-07-29T09:21:13;97520.00;;;29.30
19666;BMP180;9980;51.020;7.772;2022-07-29T09:24:19;97526.00;;;29.30
19666;BMP180;9980;51.020;7.772;2022-07-29T09:26:46;97511.00;;;29.40
19666;BMP180;9980;51.020;7.772;2022-07-29T09:29:21;97513.00;;;29.30
19666;BMP180;9980;51.020;7.772;2022-07-29T09:31:51;97526.00;;;29.40
19666;BMP180;9980;51.020;7.772;2022-07-29T09:34:29;97523.00;;;29.30
19666;BMP180;9980;51.020;7.772;2022-07-29T09:36:58;97511.00;;;29.40
19666;BMP180;9980;51.020;7.772;2022-07-29T09:39:39;97505.00;;;29.30
19666;BMP180;9980;51.020;7.772;2022-07-29T09:42:13;97502.00;;;29.40
19666;BMP180;9980;51.020;7.772;2022-07-29T09:44:46;97504.00;;;29.40
19666;BMP180;9980;51.020;7.772;2022-07-29T09:47:17;97505.00;;;29.40
19666;BMP180;9980;51.020;7.772;2022-07-29T09:49:59;97504.00;;;29.40
19666;BMP180;9980;51.020;7.772;2022-07-29T09:52:29;97516.00;;;29.50
19666;BMP180;9980;51.020;7.772;2022-07-29T09:55:09;97511.00;;;29.50
19666;BMP180;9980;51.020;7.772;2022-07-29T09:57:45;97500.00;;;29.60
19666;BMP180;9980;51.020;7.772;2022-07-29T10:00:18;97513.00;;;29.60
19666;BMP180;9980;51.020;7.772;2022-07-29T10:02:47;97499.00;;;29.70
19666;BMP180;9980;51.020;7.772;2022-07-29T10:05:23;97513.00;;;29.70
19666;BMP180;9980;51.020;7.772;2022-07-29T10:07:54;97510.00;;;29.80
19666;BMP180;9980;51.020;7.772;2022-07-29T10:10:27;97513.00;;;29.90
19666;BMP180;9980;51.020;7.772;2022-07-29T10:12:59;97520.00;;;29.90
19666;BMP180;9980;51.020;7.772;2022-07-29T10:15:41;97497.00;;;29.90
19666;BMP180;9980;51.020;7.772;2022-07-29T10:18:14;97520.00;;;29.90
19666;BMP180;9980;51.020;7.772;2022-07-29T10:20:43;97518.00;;;30.00
19666;BMP180;9980;51.020;7.772;2022-07-29T10:23:10;97499.00;;;30.00
19666;BMP180;9980;51.020;7.772;2022-07-29T10:25:39;97518.00;;;30.10
19666;BMP180;9980;51.020;7.772;2022-07-29T10:28:12;97512.00;;;30.10
19666;BMP180;9980;51.020;7.772;2022-07-29T10:30:45;97516.00;;;30.10
19666;BMP180;9980;51.020;7.772;2022-07-29T10:33:31;97513.00;;;30.10
19666;BMP180;9980;51.020;7.772;2022-07-29T10:36:48;97517.00;;;30.10
19666;BMP180;9980;51.020;7.772;2022-07-29T10:42:29;97518.00;;;30.20
19666;BMP180;9980;51.020;7.772;2022-07-29T10:45:02;97515.00;;;30.30
19666;BMP180;9980;51.020;7.772;2022-07-29T10:47:31;97498.00;;;30.30
19666;BMP180;9980;51.020;7.772;2022-07-29T10:50:05;97503.00;;;30.40
19666;BMP180;9980;51.020;7.772;2022-07-29T10:55:39;97515.00;;;30.50
19666;BMP180;9980;51.020;7.772;2022-07-29T11:00:45;97504.00;;;30.70
19666;BMP180;9980;51.020;7.772;2022-07-29T11:03:45;97489.00;;;30.80
19666;BMP180;9980;51.020;7.772;2022-07-29T11:06:16;97502.00;;;30.90
19666;BMP180;9980;51.020;7.772;2022-07-29T11:09:16;97509.00;;;31.00
19666;BMP180;9980;51.020;7.772;2022-07-29T11:11:46;97494.00;;;31.10
19666;BMP180;9980;51.020;7.772;2022-07-29T11:14:20;97498.00;;;31.20
19666;BMP180;9980;51.020;7.772;2022-07-29T11:17:06;97490.00;;;31.30
19666;BMP180;9980;51.020;7.772;2022-07-29T11:19:34;97497.00;;;31.40
19666;BMP180;9980;51.020;7.772;2022-07-29T11:22:09;97503.00;;;31.50
19666;BMP180;9980;51.020;7.772;2022-07-29T11:24:37;97495.00;;;31.50
19666;BMP180;9980;51.020;7.772;2022-07-29T11:27:19;97498.00;;;31.60
19666;BMP180;9980;51.020;7.772;2022-07-29T11:29:51;97488.00;;;31.60
19666;BMP180;9980;51.020;7.772;2022-07-29T11:32:22;97490.00;;;31.70
19666;BMP180;9980;51.020;7.772;2022-07-29T11:35:12;97487.00;;;31.60
19666;BMP180;9980;51.020;7.772;2022-07-29T11:37:46;97482.00;;;31.70
19666;BMP180;9980;51.020;7.772;2022-07-29T11:40:23;97493.00;;;31.70
19666;BMP180;9980;51.020;7.772;2022-07-29T11:42:51;97488.00;;;31.80
19666;BMP180;9980;51.020;7.772;2022-07-29T11:45:21;97490.00;;;31.80
19666;BMP180;9980;51.020;7.772;2022-07-29T11:48:16;97461.00;;;31.90
19666;BMP180;9980;51.020;7.772;2022-07-29T11:50:59;97478.00;;;32.00
19666;BMP180;9980;51.020;7.772;2022-07-29T11:53:26;97478.00;;;32.10
19666;BMP180;9980;51.020;7.772;2022-07-29T11:55:59;97477.00;;;32.20
19666;BMP180;9980;51.020;7.772;2022-07-29T11:58:29;97469.00;;;32.30
19666;BMP180;9980;51.020;7.772;2022-07-29T12:00:57;97471.00;;;32.40
19666;BMP180;9980;51.020;7.772;2022-07-29T12:03:31;97466.00;;;32.50
19666;BMP180;9980;51.020;7.772;2022-07-29T12:06:13;97467.00;;;32.50
19666;BMP180;9980;51.020;7.772;2022-07-29T12:08:43;97468.00;;;32.70
19666;BMP180;9980;51.020;7.772;2022-07-29T12:11:20;97461.00;;;32.70
19666;BMP180;9980;51.020;7.772;2022-07-29T12:13:50;97469.00;;;32.80
19666;BMP180;9980;51.020;7.772;2022-07-29T12:16:20;97458.00;;;32.80
19666;BMP180;9980;51.020;7.772;2022-07-29T12:19:00;97467.00;;;32.80
19666;BMP180;9980;51.020;7.772;2022-07-29T12:21:53;97463.00;;;32.80
19666;BMP180;9980;51.020;7.772;2022-07-29T12:24:23;97455.00;;;32.90
19666;BMP180;9980;51.020;7.772;2022-07-29T12:26:58;97466.00;;;32.80
19666;BMP180;9980;51.020;7.772;2022-07-29T12:29:26;97467.00;;;32.80
19666;BMP180;9980;51.020;7.772;2022-07-29T12:32:02;97459.00;;;32.80
19666;BMP180;9980;51.020;7.772;2022-07-29T12:34:40;97465.00;;;32.80
19666;BMP180;9980;51.020;7.772;2022-07-29T12:37:09;97452.00;;;32.90
19666;BMP180;9980;51.020;7.772;2022-07-29T12:39:37;97458.00;;;32.90
19666;BMP180;9980;51.020;7.772;2022-07-29T12:42:14;97463.00;;;32.90
19666;BMP180;9980;51.020;7.772;2022-07-29T12:44:49;97447.00;;;33.00
19666;BMP180;9980;51.020;7.772;2022-07-29T12:47:17;97457.00;;;33.00
19666;BMP180;9980;51.020;7.772;2022-07-29T12:49:46;97451.00;;;33.10
19666;BMP180;9980;51.020;7.772;2022-07-29T12:52:34;97448.00;;;33.10
19666;BMP180;9980;51.020;7.772;2022-07-29T12:55:02;97466.00;;;33.10
19666;BMP180;9980;51.020;7.772;2022-07-29T12:57:29;97457.00;;;33.10
19666;BMP180;9980;51.020;7.772;2022-07-29T13:00:09;97454.00;;;33.10
19666;BMP180;9980;51.020;7.772;2022-07-29T13:02:41;97443.00;;;33.10
19666;BMP180;9980;51.020;7.772;2022-07-29T13:05:13;97434.00;;;33.20
19666;BMP180;9980;51.020;7.772;2022-07-29T13:07:41;97439.00;;;33.30
19666;BMP180;9980;51.020;7.772;2022-07-29T13:10:23;97439.00;;;33.40
19666;BMP180;9980;51.020;7.772;2022-07-29T13:13:07;97446.00;;;33.40
19666;BMP180;9980;51.020;7.772;2022-07-29T13:15:38;97433.00;;;33.50
19666;BMP180;9980;51.020;7.772;2022-07-29T13:18:33;97431.00;;;33.50
19666;BMP180;9980;51.020;7.772;2022-07-29T13:21:14;97432.00;;;33.70
19666;BMP180;9980;51.020;7.772;2022-07-29T13:23:44;97427.00;;;33.80
19666;BMP180;9980;51.020;7.772;2022-07-29T13:26:11;97440.00;;;33.80
19666;BMP180;9980;51.020;7.772;2022-07-29T13:28:39;97436.00;;;33.80
19666;BMP180;9980;51.020;7.772;2022-07-29T13:31:10;97430.00;;;33.80
19666;BMP180;9980;51.020;7.772;2022-07-29T13:33:37;97434.00;;;33.80
19666;BMP180;9980;51.020;7.772;2022-07-29T13:36:04;97439.00;;;33.80
19666;BMP180;9980;51.020;7.772;2022-07-29T13:38:31;97427.00;;;33.80
19666;BMP180;9980;51.020;7.772;2022-07-29T13:40:58;97435.00;;;33.80
19666;BMP180;9980;51.020;7.772;2022-07-29T13:43:25;97432.00;;;33.70
19666;BMP180;9980;51.020;7.772;2022-07-29T13:45:52;97440.00;;;33.70
19666;BMP180;9980;51.020;7.772;2022-07-29T13:48:19;97437.00;;;33.60
19666;BMP180;9980;51.020;7.772;2022-07-29T13:50:47;97448.00;;;33.60
19666;BMP180;9980;51.020;7.772;2022-07-29T13:53:14;97439.00;;;33.60
19666;BMP180;9980;51.020;7.772;2022-07-29T13:55:44;97442.00;;;33.60
19666;BMP180;9980;51.020;7.772;2022-07-29T13:58:11;97449.00;;;33.60
19666;BMP180;9980;51.020;7.772;2022-07-29T14:00:38;97443.00;;;33.60
19666;BMP180;9980;51.020;7.772;2022-07-29T14:03:05;97442.00;;;33.60
19666;BMP180;9980;51.020;7.772;2022-07-29T14:05:33;97442.00;;;33.60
19666;BMP180;9980;51.020;7.772;2022-07-29T14:08:00;97445.00;;;33.60
19666;BMP180;9980;51.020;7.772;2022-07-29T14:10:27;97434.00;;;33.70
19666;BMP180;9980;51.020;7.772;2022-07-29T14:12:54;97436.00;;;33.80
19666;BMP180;9980;51.020;7.772;2022-07-29T14:15:21;97438.00;;;33.90
19666;BMP180;9980;51.020;7.772;2022-07-29T14:17:48;97449.00;;;33.90
19666;BMP180;9980;51.020;7.772;2022-07-29T14:20:15;97441.00;;;34.00
19666;BMP180;9980;51.020;7.772;2022-07-29T14:22:43;97445.00;;;34.10
19666;BMP180;9980;51.020;7.772;2022-07-29T14:25:11;97445.00;;;34.10
19666;BMP180;9980;51.020;7.772;2022-07-29T14:27:42;97455.00;;;34.10
19666;BMP180;9980;51.020;7.772;2022-07-29T14:30:10;97458.00;;;34.10
19666;BMP180;9980;51.020;7.772;2022-07-29T14:32:37;97456.00;;;34.10
19666;BMP180;9980;51.020;7.772;2022-07-29T14:35:06;97460.00;;;34.10
19666;BMP180;9980;51.020;7.772;2022-07-29T14:37:33;97462.00;;;34.00
19666;BMP180;9980;51.020;7.772;2022-07-29T14:40:08;97445.00;;;34.00
19666;BMP180;9980;51.020;7.772;2022-07-29T14:42:36;97461.00;;;34.00
19666;BMP180;9980;51.020;7.772;2022-07-29T14:45:06;97470.00;;;34.00
19666;BMP180;9980;51.020;7.772;2022-07-29T14:47:34;97461.00;;;33.90
19666;BMP180;9980;51.020;7.772;2022-07-29T14:50:03;97457.00;;;33.90
19666;BMP180;9980;51.020;7.772;2022-07-29T14:52:31;97474.00;;;33.90
19666;BMP180;9980;51.020;7.772;2022-07-29T14:54:58;97474.00;;;33.90
19666;BMP180;9980;51.020;7.772;2022-07-29T14:57:26;97467.00;;;33.80
19666;BMP180;9980;51.020;7.772;2022-07-29T14:59:53;97465.00;;;33.70
19666;BMP180;9980;51.020;7.772;2022-07-29T15:02:20;97485.00;;;33.70